createdAt,value
2017-10-11T00:02:07.795Z,84.50
2017-10-11T00:04:36.071Z,85.10
2017-10-11T00:07:05.132Z,84.50
2017-10-11T00:09:34.912Z,84.40
2017-10-11T00:12:03.183Z,84.50
2017-10-11T00:14:31.648Z,84.50
2017-10-11T00:16:59.915Z,84.40
2017-10-11T00:19:28.182Z,84.90
2017-10-11T00:21:56.466Z,84.50
2017-10-11T00:24:24.737Z,84.10
2017-10-11T00:26:53.031Z,84.20
2017-10-11T00:29:21.307Z,84.50
2017-10-11T00:31:49.571Z,84.50
2017-10-11T00:34:17.852Z,84.40
2017-10-11T00:36:46.883Z,84.50
2017-10-11T00:39:15.171Z,84.40
2017-10-11T00:41:43.443Z,84.50
2017-10-11T00:44:11.709Z,85.20
2017-10-11T00:46:40.755Z,84.40
2017-10-11T00:49:09.023Z,84.40
2017-10-11T00:51:37.291Z,84.50
2017-10-11T00:54:05.588Z,85.70
2017-10-11T00:56:34.615Z,84.50
2017-10-11T00:59:02.899Z,84.40
2017-10-11T01:01:31.259Z,85.00
2017-10-11T01:03:59.559Z,85.00
2017-10-11T01:06:27.828Z,84.50
2017-10-11T01:08:56.092Z,84.50
2017-10-11T01:11:24.374Z,84.50
2017-10-11T01:13:52.647Z,84.50
2017-10-11T01:16:20.931Z,84.50
2017-10-11T01:18:49.203Z,84.50
2017-10-11T01:21:17.516Z,84.50
2017-10-11T01:23:45.792Z,84.50
2017-10-11T01:26:14.059Z,84.90
2017-10-11T01:28:42.347Z,84.50
2017-10-11T01:31:10.624Z,84.50
2017-10-11T01:33:39.696Z,84.50
2017-10-11T01:36:08.731Z,84.50
2017-10-11T01:38:37.003Z,84.50
2017-10-11T01:41:05.287Z,84.50
2017-10-11T01:43:33.555Z,84.50
2017-10-11T01:46:02.607Z,85.80
2017-10-11T01:48:30.875Z,85.70
2017-10-11T01:50:59.187Z,86.40
2017-10-11T01:53:27.446Z,85.60
2017-10-11T01:55:55.738Z,86.30
2017-10-11T01:58:24.019Z,86.10
2017-10-11T02:00:52.287Z,86.50
2017-10-11T02:03:22.107Z,85.40
2017-10-11T02:05:51.139Z,85.30
2017-10-11T02:08:19.408Z,85.30
2017-10-11T02:10:47.696Z,84.40
2017-10-11T02:13:15.964Z,85.50
2017-10-11T02:15:45.012Z,85.80
2017-10-11T02:18:13.311Z,85.80
2017-10-11T02:20:41.581Z,87.50
2017-10-11T02:23:10.606Z,87.90
2017-10-11T02:25:38.907Z,87.90
2017-10-11T02:28:07.959Z,88.50
2017-10-11T02:30:36.222Z,88.40
2017-10-11T02:33:04.503Z,88.10
2017-10-11T02:35:33.540Z,88.20
2017-10-11T02:38:01.827Z,88.20
2017-10-11T02:40:30.091Z,88.30
2017-10-11T02:42:58.402Z,89.30
2017-10-11T02:45:26.691Z,90.00
2017-10-11T02:47:54.945Z,89.60
2017-10-11T02:50:23.228Z,89.80
2017-10-11T02:52:51.491Z,90.20
2017-10-11T02:55:19.971Z,90.10
2017-10-11T02:57:48.235Z,90.20
2017-10-11T03:00:16.510Z,90.30
2017-10-11T03:02:45.564Z,90.40
2017-10-11T03:05:13.836Z,90.40
2017-10-11T03:07:42.135Z,90.70
2017-10-11T03:10:10.407Z,90.80
2017-10-11T03:12:38.667Z,90.80
2017-10-11T03:15:06.947Z,90.70
2017-10-11T03:17:35.263Z,90.60
2017-10-11T03:20:04.335Z,90.90
2017-10-11T03:22:33.367Z,90.60
2017-10-11T03:25:01.641Z,90.50
2017-10-11T03:27:29.995Z,90.40
2017-10-11T03:29:58.259Z,90.10
2017-10-11T03:32:28.263Z,89.80
2017-10-11T03:34:56.538Z,89.80
2017-10-11T03:37:24.807Z,89.80
2017-10-11T03:39:53.070Z,90.20
2017-10-11T03:42:21.390Z,89.80
2017-10-11T03:44:49.650Z,90.20
2017-10-11T03:47:17.923Z,90.30
2017-10-11T03:49:46.203Z,90.00
2017-10-11T03:52:14.472Z,90.30
2017-10-11T03:54:42.750Z,90.50
2017-10-11T03:57:11.782Z,90.30
2017-10-11T03:59:40.083Z,90.20
2017-10-11T04:02:09.123Z,90.40
2017-10-11T04:04:37.386Z,90.30
2017-10-11T04:07:05.670Z,90.10
2017-10-11T04:09:35.448Z,90.80
2017-10-11T04:12:03.856Z,90.70
2017-10-11T04:14:32.895Z,91.20
2017-10-11T04:17:01.147Z,91.20
2017-10-11T04:19:29.452Z,91.50
2017-10-11T04:21:58.474Z,91.50
2017-10-11T04:24:26.791Z,91.20
2017-10-11T04:26:55.832Z,91.30
2017-10-11T04:29:24.112Z,91.20
2017-10-11T04:31:52.391Z,91.30
2017-10-11T04:34:21.443Z,91.60
2017-10-11T04:36:49.738Z,91.50
2017-10-11T04:39:18.771Z,91.70
2017-10-11T04:41:47.045Z,91.70
2017-10-11T04:44:15.327Z,91.60
2017-10-11T04:46:43.599Z,91.50
2017-10-11T04:49:12.672Z,91.60
2017-10-11T04:51:41.698Z,91.80
2017-10-11T04:54:09.968Z,91.50
2017-10-11T04:56:38.246Z,91.20
2017-10-11T04:59:06.516Z,91.20
2017-10-11T05:01:34.923Z,91.20
2017-10-11T05:04:03.203Z,91.20
2017-10-11T05:06:31.467Z,91.20
2017-10-11T05:08:59.746Z,91.20
2017-10-11T05:11:28.019Z,91.20
2017-10-11T05:13:56.323Z,91.20
2017-10-11T05:16:25.350Z,91.20
2017-10-11T05:18:53.627Z,91.20
2017-10-11T05:21:21.907Z,91.20
2017-10-11T05:23:50.942Z,90.90
2017-10-11T05:26:19.259Z,90.90
2017-10-11T05:28:48.298Z,91.00
2017-10-11T05:31:16.563Z,90.90
2017-10-11T05:33:44.851Z,91.20
2017-10-11T05:36:13.903Z,90.60
2017-10-11T05:38:42.203Z,90.60
2017-10-11T05:41:11.231Z,90.40
2017-10-11T05:43:39.502Z,90.40
2017-10-11T05:46:09.287Z,90.10
2017-10-11T05:48:37.556Z,90.30
2017-10-11T05:51:06.755Z,90.30
2017-10-11T05:53:35.025Z,90.10
2017-10-11T05:56:03.299Z,90.10
2017-10-11T05:58:32.351Z,90.80
2017-10-11T06:01:00.620Z,90.70
2017-10-11T06:03:28.933Z,90.30
2017-10-11T06:05:57.198Z,90.10
2017-10-11T06:08:25.474Z,90.60
2017-10-11T06:10:53.760Z,90.70
2017-10-11T06:13:22.019Z,90.40
2017-10-11T06:15:50.493Z,90.00
2017-10-11T06:18:20.259Z,90.00
2017-10-11T06:20:48.539Z,90.00
2017-10-11T06:23:16.828Z,90.10
2017-10-11T06:25:45.875Z,90.20
2017-10-11T06:28:14.134Z,90.20
2017-10-11T06:30:43.401Z,90.10
2017-10-11T06:33:11.666Z,90.00
2017-10-11T06:35:39.983Z,90.00
2017-10-11T06:38:09.010Z,89.60
2017-10-11T06:40:37.279Z,89.60
2017-10-11T06:43:05.569Z,89.20
2017-10-11T06:45:34.604Z,90.00
2017-10-11T06:48:02.923Z,90.00
2017-10-11T06:50:31.191Z,89.70
2017-10-11T06:53:00.251Z,90.40
2017-10-11T06:55:28.532Z,90.40
2017-10-11T06:57:57.559Z,90.20
2017-10-11T07:00:25.878Z,90.20
2017-10-11T07:02:54.138Z,90.10
2017-10-11T07:05:22.406Z,89.70
2017-10-11T07:07:50.749Z,89.10
2017-10-11T07:10:19.779Z,87.70
2017-10-11T07:12:48.095Z,87.50
2017-10-11T07:15:17.126Z,87.80
2017-10-11T07:17:45.401Z,87.70
2017-10-11T07:20:13.670Z,87.60
2017-10-11T07:22:41.943Z,86.30
2017-10-11T07:25:11.118Z,86.90
2017-10-11T07:27:39.383Z,86.90
2017-10-11T07:30:08.415Z,85.10
2017-10-11T07:32:36.713Z,85.00
2017-10-11T07:35:04.983Z,84.60
2017-10-11T07:37:33.436Z,84.60
2017-10-11T07:40:01.695Z,84.60
2017-10-11T07:42:29.993Z,84.70
2017-10-11T07:44:59.063Z,84.70
2017-10-11T07:47:28.091Z,82.90
2017-10-11T07:49:56.399Z,82.90
2017-10-11T07:52:25.426Z,82.40
2017-10-11T07:54:53.695Z,82.40
2017-10-11T07:57:21.979Z,82.90
2017-10-11T07:59:50.260Z,84.10
2017-10-11T08:02:19.347Z,81.70
2017-10-11T08:04:48.381Z,83.70
2017-10-11T08:07:16.670Z,82.90
2017-10-11T08:09:44.945Z,80.70
2017-10-11T08:12:13.974Z,80.60
2017-10-11T08:14:42.263Z,80.50
2017-10-11T08:17:10.525Z,78.60
2017-10-11T08:19:38.818Z,78.60
2017-10-11T08:22:07.079Z,78.70
2017-10-11T08:24:35.516Z,77.40
2017-10-11T08:27:04.556Z,78.00
2017-10-11T08:29:32.819Z,78.00
2017-10-11T08:32:01.107Z,79.40
2017-10-11T08:34:29.371Z,79.10
2017-10-11T08:36:57.680Z,77.60
2017-10-11T08:39:25.950Z,76.80
2017-10-11T08:41:54.220Z,73.90
2017-10-11T08:44:22.504Z,72.90
2017-10-11T08:46:50.768Z,72.60
2017-10-11T08:49:19.068Z,73.10
2017-10-11T08:51:48.101Z,71.90
2017-10-11T08:54:17.738Z,71.50
2017-10-11T08:56:46.787Z,72.10
2017-10-11T08:59:15.051Z,72.10
2017-10-11T09:01:43.379Z,71.60
2017-10-11T09:04:11.647Z,72.50
2017-10-11T09:06:39.912Z,73.90
2017-10-11T09:09:08.195Z,71.00
2017-10-11T09:11:36.466Z,70.90
2017-10-11T09:14:04.773Z,72.10
2017-10-11T09:16:33.043Z,71.10
2017-10-11T09:19:01.315Z,72.60
2017-10-11T09:21:30.411Z,71.30
2017-10-11T09:23:58.688Z,71.40
2017-10-11T09:26:26.991Z,71.20
2017-10-11T09:28:55.256Z,71.50
2017-10-11T09:31:23.524Z,72.00
2017-10-11T09:33:51.824Z,72.00
2017-10-11T09:36:20.078Z,71.10
2017-10-11T09:38:48.401Z,71.40
2017-10-11T09:41:16.655Z,72.70
2017-10-11T09:43:44.923Z,70.10
2017-10-11T09:46:13.235Z,69.10
2017-10-11T09:48:41.500Z,69.30
2017-10-11T09:51:09.776Z,67.90
2017-10-11T09:53:38.827Z,70.50
2017-10-11T09:56:07.099Z,70.50
2017-10-11T09:58:35.371Z,68.00
2017-10-11T10:01:03.650Z,68.90
2017-10-11T10:03:31.943Z,69.20
2017-10-11T10:06:00.236Z,68.20
2017-10-11T10:08:28.527Z,68.30
2017-10-11T10:10:57.563Z,67.90
2017-10-11T10:13:25.849Z,67.80
2017-10-11T10:15:54.118Z,66.20
2017-10-11T10:18:23.191Z,66.40
2017-10-11T10:20:51.460Z,65.60
2017-10-11T10:23:20.488Z,66.40
2017-10-11T10:25:48.774Z,66.50
2017-10-11T10:28:17.049Z,64.10
2017-10-11T10:30:45.352Z,65.70
2017-10-11T10:33:13.623Z,64.30
2017-10-11T10:35:41.894Z,63.90
2017-10-11T10:38:10.178Z,63.80
2017-10-11T10:40:38.475Z,63.40
2017-10-11T10:43:06.783Z,62.40
2017-10-11T10:45:35.047Z,63.50
2017-10-11T10:48:03.316Z,62.90
2017-10-11T10:50:31.610Z,61.80
2017-10-11T10:52:59.898Z,61.00
2017-10-11T10:55:28.202Z,62.00
2017-10-11T10:57:56.471Z,61.80
2017-10-11T11:00:24.751Z,59.90
2017-10-11T11:02:53.039Z,59.20
2017-10-11T11:05:21.313Z,59.20
2017-10-11T11:07:49.606Z,59.20
2017-10-11T11:10:17.879Z,58.10
2017-10-11T11:12:46.139Z,57.40
2017-10-11T11:15:14.429Z,57.30
2017-10-11T11:17:43.466Z,56.80
2017-10-11T11:20:11.752Z,56.10
2017-10-11T11:22:40.021Z,54.80
2017-10-11T11:25:08.340Z,54.20
2017-10-11T11:27:36.640Z,54.40
2017-10-11T11:30:04.890Z,55.20
2017-10-11T11:32:33.187Z,54.20
2017-10-11T11:35:02.223Z,54.80
2017-10-11T11:37:30.555Z,54.60
2017-10-11T11:39:58.821Z,55.70
2017-10-11T11:42:27.104Z,57.20
2017-10-11T11:44:55.384Z,56.40
2017-10-11T11:47:23.665Z,56.50
2017-10-11T11:49:53.771Z,57.20
2017-10-11T11:52:22.041Z,57.10
2017-10-11T11:54:51.068Z,56.20
2017-10-11T11:57:19.352Z,56.20
2017-10-11T11:59:47.622Z,56.50
2017-10-11T12:02:15.994Z,55.80
2017-10-11T12:04:45.031Z,56.00
2017-10-11T12:07:13.299Z,55.90
2017-10-11T12:09:41.586Z,56.20
2017-10-11T12:12:10.623Z,57.90
2017-10-11T12:14:38.940Z,57.80
2017-10-11T12:17:07.976Z,57.40
2017-10-11T12:19:36.248Z,57.30
2017-10-11T12:22:04.532Z,59.40
2017-10-11T12:24:32.816Z,56.80
2017-10-11T12:27:01.122Z,56.90
2017-10-11T12:29:30.220Z,57.90
2017-10-11T12:31:58.479Z,57.70
2017-10-11T12:34:26.872Z,57.40
2017-10-11T12:36:55.919Z,58.20
2017-10-11T12:39:24.391Z,58.20
2017-10-11T12:41:52.654Z,57.20
2017-10-11T12:44:20.935Z,56.70
2017-10-11T12:46:49.207Z,58.10
2017-10-11T12:49:17.483Z,56.10
2017-10-11T12:51:45.759Z,55.50
2017-10-11T12:54:14.022Z,57.30
2017-10-11T12:56:42.709Z,56.20
2017-10-11T12:59:10.984Z,57.00
2017-10-11T13:01:39.247Z,56.50
2017-10-11T13:04:07.527Z,55.50
2017-10-11T13:06:36.563Z,57.20
2017-10-11T13:09:04.880Z,57.00
2017-10-11T13:11:34.031Z,56.00
2017-10-11T13:14:02.299Z,55.90
2017-10-11T13:16:30.579Z,55.20
2017-10-11T13:18:59.613Z,54.40
2017-10-11T13:21:27.899Z,54.30
2017-10-11T13:23:56.179Z,55.60
2017-10-11T13:26:24.475Z,54.40
2017-10-11T13:28:52.747Z,56.20
2017-10-11T13:31:21.015Z,55.10
2017-10-11T13:33:49.304Z,54.40
2017-10-11T13:36:17.570Z,55.70
2017-10-11T13:38:45.881Z,55.00
2017-10-11T13:41:14.151Z,55.80
2017-10-11T13:43:42.475Z,55.00
2017-10-11T13:46:11.520Z,55.50
2017-10-11T13:48:39.788Z,55.40
2017-10-11T13:51:08.126Z,57.00
2017-10-11T13:53:36.386Z,56.10
2017-10-11T13:56:04.659Z,57.00
2017-10-11T13:58:32.960Z,56.00
2017-10-11T14:01:01.219Z,55.10
2017-10-11T14:03:30.356Z,55.40
2017-10-11T14:05:58.627Z,55.30
2017-10-11T14:08:26.903Z,55.20
2017-10-11T14:10:55.192Z,56.40
2017-10-11T14:13:24.223Z,56.40
2017-10-11T14:15:52.856Z,56.30
2017-10-11T14:18:21.427Z,56.00
2017-10-11T14:20:49.719Z,57.80
2017-10-11T14:23:18.002Z,56.20
2017-10-11T14:25:46.276Z,56.20
2017-10-11T14:28:14.602Z,56.40
2017-10-11T14:30:42.881Z,56.40
2017-10-11T14:33:11.307Z,56.90
2017-10-11T14:35:39.882Z,57.20
2017-10-11T14:38:08.424Z,57.10
2017-10-11T14:40:37.011Z,56.20
2017-10-11T14:43:05.582Z,56.60
2017-10-11T14:45:34.839Z,57.20
2017-10-11T14:48:03.433Z,57.10
2017-10-11T14:50:31.687Z,57.50
2017-10-11T14:52:59.975Z,57.60
2017-10-11T14:55:28.233Z,58.10
2017-10-11T14:57:56.535Z,58.00
2017-10-11T15:00:24.878Z,58.00
2017-10-11T15:02:53.390Z,58.30
2017-10-11T15:05:21.876Z,58.30
2017-10-11T15:07:50.430Z,59.40
2017-10-11T15:10:18.832Z,58.90
2017-10-11T15:12:47.187Z,59.00
2017-10-11T15:15:15.488Z,59.40
2017-10-11T15:17:44.546Z,61.50
2017-10-11T15:20:13.162Z,61.40
2017-10-11T15:22:41.592Z,60.30
2017-10-11T15:25:09.854Z,61.60
2017-10-11T15:27:38.450Z,61.70
2017-10-11T15:30:07.043Z,61.00
2017-10-11T15:32:35.590Z,63.00
2017-10-11T15:35:04.081Z,61.50
2017-10-11T15:37:32.627Z,62.00
2017-10-11T15:40:01.960Z,61.80
2017-10-11T15:42:30.262Z,61.80
2017-10-11T15:44:58.554Z,62.30
2017-10-11T15:47:27.244Z,62.80
2017-10-11T15:49:55.672Z,64.00
2017-10-11T15:52:24.249Z,63.90
2017-10-11T15:54:52.828Z,63.30
2017-10-11T15:57:22.240Z,65.20
2017-10-11T15:59:50.915Z,65.20
2017-10-11T16:02:19.544Z,64.30
2017-10-11T16:04:47.807Z,62.70
2017-10-11T16:07:16.097Z,62.60
2017-10-11T16:09:44.363Z,64.20
2017-10-11T16:12:12.689Z,65.40
2017-10-11T16:14:40.959Z,65.10
2017-10-11T16:17:09.223Z,65.30
2017-10-11T16:19:37.507Z,66.50
2017-10-11T16:22:05.783Z,67.40
2017-10-11T16:24:34.088Z,68.40
2017-10-11T16:27:02.347Z,68.30
2017-10-11T16:29:30.628Z,68.30
2017-10-11T16:31:58.916Z,68.90
2017-10-11T16:34:27.186Z,68.70
2017-10-11T16:36:55.498Z,68.80
2017-10-11T16:39:23.763Z,68.90
2017-10-11T16:41:52.031Z,69.00
2017-10-11T16:44:20.310Z,69.00
2017-10-11T16:46:48.604Z,70.20
2017-10-11T16:49:17.022Z,70.60
2017-10-11T16:51:45.290Z,70.70
2017-10-11T16:54:13.555Z,71.30
2017-10-11T16:56:41.843Z,71.90
2017-10-11T16:59:10.124Z,72.80
2017-10-11T17:01:39.180Z,74.00
2017-10-11T17:04:07.446Z,73.80
2017-10-11T17:06:35.775Z,73.50
2017-10-11T17:09:04.067Z,74.30
2017-10-11T17:11:32.342Z,76.00
2017-10-11T17:14:01.476Z,75.90
2017-10-11T17:16:30.013Z,76.00
2017-10-11T17:18:58.319Z,76.80
2017-10-11T17:21:26.587Z,77.70
2017-10-11T17:23:54.896Z,78.10
2017-10-11T17:26:23.158Z,78.40
2017-10-11T17:28:51.427Z,79.10
2017-10-11T17:31:19.711Z,79.10
2017-10-11T17:33:47.999Z,79.50
2017-10-11T17:36:16.302Z,79.00
2017-10-11T17:38:45.338Z,80.10
2017-10-11T17:41:13.604Z,80.00
2017-10-11T17:43:41.883Z,80.60
2017-10-11T17:46:10.146Z,80.30
2017-10-11T17:48:39.200Z,80.60
2017-10-11T17:51:07.470Z,80.50
2017-10-11T17:53:35.939Z,80.50
2017-10-11T17:56:04.219Z,80.80
2017-10-11T17:58:33.247Z,81.00
2017-10-11T18:01:01.551Z,80.90
2017-10-11T18:03:29.898Z,81.10
2017-10-11T18:05:58.219Z,81.40
2017-10-11T18:08:26.504Z,81.80
2017-10-11T18:10:54.784Z,81.90
2017-10-11T18:13:23.063Z,81.90
2017-10-11T18:15:52.123Z,83.20
2017-10-11T18:18:20.423Z,82.60
2017-10-11T18:20:48.691Z,83.80
2017-10-11T18:23:16.959Z,84.70
2017-10-11T18:25:45.242Z,84.80
2017-10-11T18:28:16.082Z,84.80
2017-10-11T18:30:44.904Z,84.80
2017-10-11T18:33:13.626Z,84.80
2017-10-11T18:35:41.900Z,84.80
2017-10-11T18:38:10.340Z,84.80
2017-10-11T18:40:39.971Z,84.70
2017-10-11T18:43:08.436Z,84.80
2017-10-11T18:45:37.630Z,84.80
2017-10-11T18:48:07.734Z,84.70
2017-10-11T18:50:36.709Z,84.60
2017-10-11T18:53:14.256Z,85.20
2017-10-11T18:55:44.318Z,85.40
2017-10-11T18:58:14.081Z,85.20
2017-10-11T19:00:45.342Z,85.80
2017-10-11T19:03:13.619Z,85.70
2017-10-11T19:05:41.891Z,86.50
2017-10-11T19:08:10.180Z,87.00
2017-10-11T19:10:38.451Z,87.00
2017-10-11T19:13:06.783Z,87.40
2017-10-11T19:15:35.324Z,87.70
2017-10-11T19:18:03.587Z,88.10
2017-10-11T19:20:35.547Z,88.40
2017-10-11T19:23:04.435Z,88.50
2017-10-11T19:25:32.758Z,88.80
2017-10-11T19:28:01.042Z,88.40
2017-10-11T19:30:29.747Z,87.80
2017-10-11T19:32:58.058Z,87.20
2017-10-11T19:35:26.339Z,86.70
2017-10-11T19:37:54.679Z,87.10
2017-10-11T19:40:22.943Z,87.20
2017-10-11T19:42:51.214Z,87.00
2017-10-11T19:45:19.491Z,87.00
2017-10-11T19:47:47.756Z,87.20
2017-10-11T19:50:16.100Z,87.10
2017-10-11T19:52:44.411Z,87.10
2017-10-11T19:55:12.675Z,86.60
2017-10-11T19:57:41.774Z,86.70
2017-10-11T20:00:13.340Z,87.30
2017-10-11T20:02:41.622Z,87.20
2017-10-11T20:05:09.911Z,86.90
2017-10-11T20:07:38.179Z,86.80
2017-10-11T20:10:06.467Z,86.70
2017-10-11T20:12:34.733Z,86.00
2017-10-11T20:15:03.061Z,85.70
2017-10-11T20:17:31.323Z,85.70
2017-10-11T20:19:59.594Z,85.90
2017-10-11T20:22:28.647Z,85.90
2017-10-11T20:24:56.912Z,85.80
2017-10-11T20:27:26.723Z,87.00
2017-10-11T20:29:55.802Z,86.90
2017-10-11T20:32:24.068Z,86.90
2017-10-11T20:34:52.347Z,86.80
2017-10-11T20:37:20.614Z,87.30
2017-10-11T20:39:48.901Z,86.50
2017-10-11T20:42:17.168Z,86.50
2017-10-11T20:44:45.681Z,86.70
2017-10-11T20:47:13.943Z,87.20
2017-10-11T20:49:42.980Z,87.90
2017-10-11T20:52:11.258Z,87.80
2017-10-11T20:54:39.519Z,87.90
2017-10-11T20:57:07.843Z,87.90
2017-10-11T20:59:36.128Z,87.10
2017-10-11T21:02:04.387Z,87.60
2017-10-11T21:04:32.676Z,88.00
2017-10-11T21:07:00.948Z,88.00
2017-10-11T21:09:29.271Z,87.80
2017-10-11T21:11:57.548Z,88.20
2017-10-11T21:14:25.831Z,87.80
2017-10-11T21:16:54.863Z,87.30
2017-10-11T21:19:23.152Z,87.20
2017-10-11T21:21:51.410Z,87.30
2017-10-11T21:24:19.683Z,87.20
2017-10-11T21:26:49.479Z,88.10
2017-10-11T21:29:17.751Z,88.10
2017-10-11T21:31:46.091Z,87.70
2017-10-11T21:34:14.360Z,88.10
2017-10-11T21:36:42.655Z,88.00
2017-10-11T21:39:10.939Z,88.40
2017-10-11T21:41:39.200Z,88.90
2017-10-11T21:44:07.508Z,89.10
2017-10-11T21:46:35.780Z,89.70
2017-10-11T21:49:04.803Z,90.20
2017-10-11T21:51:33.103Z,90.20
2017-10-11T21:54:01.375Z,90.20
2017-10-11T21:56:30.575Z,90.30
2017-10-11T21:58:59.603Z,89.60
2017-10-11T22:01:27.866Z,89.50
2017-10-11T22:03:56.142Z,90.00
2017-10-11T22:06:24.407Z,90.30
2017-10-11T22:08:52.915Z,90.30
2017-10-11T22:11:21.183Z,90.30
2017-10-11T22:13:49.471Z,90.40
2017-10-11T22:16:17.755Z,90.40
2017-10-11T22:18:46.033Z,90.30
2017-10-11T22:21:14.351Z,90.40
2017-10-11T22:23:42.619Z,90.40
2017-10-11T22:26:10.912Z,90.40
2017-10-11T22:28:39.179Z,90.40
2017-10-11T22:31:08.222Z,89.70
2017-10-11T22:33:36.682Z,89.70
2017-10-11T22:36:04.930Z,89.00
2017-10-11T22:38:33.212Z,88.10
2017-10-11T22:41:01.508Z,88.40
2017-10-11T22:43:29.778Z,89.20
2017-10-11T22:45:58.832Z,90.40
2017-10-11T22:48:27.095Z,90.30
2017-10-11T22:50:55.407Z,89.70
2017-10-11T22:53:23.676Z,88.50
2017-10-11T22:55:51.945Z,89.20
2017-10-11T22:58:20.227Z,90.00
2017-10-11T23:00:48.487Z,90.30
2017-10-11T23:03:16.979Z,90.30
2017-10-11T23:05:45.259Z,90.30
2017-10-11T23:08:14.296Z,90.20
2017-10-11T23:10:42.579Z,90.20
2017-10-11T23:13:10.851Z,90.20
2017-10-11T23:15:39.916Z,90.30
2017-10-11T23:18:08.188Z,90.20
2017-10-11T23:20:36.463Z,90.30
2017-10-11T23:23:05.504Z,90.20
2017-10-11T23:25:33.908Z,90.10
2017-10-11T23:28:02.943Z,89.30
2017-10-11T23:30:31.235Z,89.30
2017-10-11T23:33:00.298Z,90.50
2017-10-11T23:35:30.088Z,90.30
2017-10-11T23:37:58.573Z,90.20
2017-10-11T23:40:26.844Z,90.20
2017-10-11T23:42:55.891Z,90.50
2017-10-11T23:45:24.186Z,90.80
2017-10-11T23:47:53.215Z,90.80
2017-10-11T23:50:21.517Z,90.80
2017-10-11T23:52:50.559Z,90.80
2017-10-11T23:55:18.827Z,90.70
2017-10-11T23:57:47.110Z,90.40
